Terminal Aerodrome Forecast
Issued by NWS Greer, SC

Current Version | Previous Version | Text Only | Print | Product List | Glossary On
Versions: 1 2 3 4 5 6 7 8 9 10 11 12 13 14
000
FTUS42 KGSP 200500
TAFAVL
TAF
KAVL 200539Z 2006/2106 VRB03KT P6SM SCT060 BKN250
     FM201200 35005KT P6SM FEW060 SCT250
     FM201500 34011KT P6SM FEW080
     FM210200 VRB03KT P6SM FEW250=

USA.gov is the U.S. government's official web portal to all federal, state and local government web resources and services.